sensor_id;sensor_type;location;lat;lon;timestamp;pressure;altitude;pressure_sealevel;temperature;humidity
72612;BME280;60655;52.182;4.474;2023-08-08T00:01:22;101372.41;;;17.48;75.82
72612;BME280;60655;52.182;4.474;2023-08-08T00:03:23;101367.25;;;17.47;75.84
72612;BME280;60655;52.182;4.474;2023-08-08T00:05:24;101371.25;;;17.44;74.74
72612;BME280;60655;52.182;4.474;2023-08-08T00:07:26;101369.69;;;17.48;71.89
72612;BME280;60655;52.182;4.474;2023-08-08T00:09:30;101368.06;;;17.47;72.30
72612;BME280;60655;52.182;4.474;2023-08-08T00:11:31;101365.88;;;17.44;72.55
72612;BME280;60655;52.182;4.474;2023-08-08T00:13:32;101370.69;;;17.42;69.24
72612;BME280;60655;52.182;4.474;2023-08-08T00:15:33;101373.88;;;17.39;68.39
72612;BME280;60655;52.182;4.474;2023-08-08T00:17:34;101370.63;;;17.37;69.34
72612;BME280;60655;52.182;4.474;2023-08-08T00:19:35;101372.72;;;17.35;68.55
72612;BME280;60655;52.182;4.474;2023-08-08T00:21:36;101365.81;;;17.39;68.91
72612;BME280;60655;52.182;4.474;2023-08-08T00:23:37;101365.50;;;17.36;71.12
72612;BME280;60655;52.182;4.474;2023-08-08T00:25:38;101359.88;;;17.37;69.56
72612;BME280;60655;52.182;4.474;2023-08-08T00:27:39;101350.75;;;17.38;69.64
72612;BME280;60655;52.182;4.474;2023-08-08T00:29:44;101362.38;;;17.44;69.36
72612;BME280;60655;52.182;4.474;2023-08-08T00:31:46;101360.19;;;17.41;70.18
72612;BME280;60655;52.182;4.474;2023-08-08T00:33:47;101349.94;;;17.38;70.27
72612;BME280;60655;52.182;4.474;2023-08-08T00:35:48;101354.13;;;17.29;70.17
72612;BME280;60655;52.182;4.474;2023-08-08T00:37:49;101352.38;;;17.39;70.26
72612;BME280;60655;52.182;4.474;2023-08-08T00:39:50;101352.88;;;17.36;69.75
72612;BME280;60655;52.182;4.474;2023-08-08T00:41:51;101362.63;;;17.42;71.18
72612;BME280;60655;52.182;4.474;2023-08-08T00:43:51;101358.88;;;17.43;71.30
72612;BME280;60655;52.182;4.474;2023-08-08T00:45:52;101350.81;;;17.21;70.62
72612;BME280;60655;52.182;4.474;2023-08-08T00:47:54;101355.19;;;17.28;70.05
72612;BME280;60655;52.182;4.474;2023-08-08T00:49:55;101354.47;;;17.32;67.20
72612;BME280;60655;52.182;4.474;2023-08-08T00:51:57;101348.38;;;17.20;66.91
72612;BME280;60655;52.182;4.474;2023-08-08T00:53:58;101357.38;;;17.31;67.52
72612;BME280;60655;52.182;4.474;2023-08-08T00:55:59;101348.78;;;17.29;66.52
72612;BME280;60655;52.182;4.474;2023-08-08T00:58:01;101357.44;;;17.36;66.49
72612;BME280;60655;52.182;4.474;2023-08-08T01:00:02;101350.41;;;17.30;67.82
72612;BME280;60655;52.182;4.474;2023-08-08T01:02:04;101362.81;;;17.36;67.15
72612;BME280;60655;52.182;4.474;2023-08-08T01:04:05;101351.56;;;17.39;67.67
72612;BME280;60655;52.182;4.474;2023-08-08T01:06:16;101351.50;;;17.34;67.07
72612;BME280;60655;52.182;4.474;2023-08-08T01:08:23;101342.03;;;17.26;67.16
72612;BME280;60655;52.182;4.474;2023-08-08T01:10:39;101346.66;;;17.31;68.25
72612;BME280;60655;52.182;4.474;2023-08-08T01:12:43;101352.56;;;17.33;68.89
72612;BME280;60655;52.182;4.474;2023-08-08T01:14:45;101338.94;;;17.17;69.18
72612;BME280;60655;52.182;4.474;2023-08-08T01:16:46;101335.34;;;17.29;69.07
72612;BME280;60655;52.182;4.474;2023-08-08T01:18:48;101346.19;;;17.39;70.34
72612;BME280;60655;52.182;4.474;2023-08-08T01:20:50;101347.72;;;17.30;70.20
72612;BME280;60655;52.182;4.474;2023-08-08T01:25:06;101348.56;;;17.35;71.11
72612;BME280;60655;52.182;4.474;2023-08-08T01:27:08;101331.78;;;17.23;70.41
72612;BME280;60655;52.182;4.474;2023-08-08T01:29:09;101324.78;;;17.22;69.84
72612;BME280;60655;52.182;4.474;2023-08-08T01:31:10;101332.09;;;17.27;70.86
72612;BME280;60655;52.182;4.474;2023-08-08T01:33:11;101338.69;;;17.19;71.34
72612;BME280;60655;52.182;4.474;2023-08-08T01:35:12;101352.13;;;17.19;70.08
72612;BME280;60655;52.182;4.474;2023-08-08T01:37:18;101337.81;;;17.13;69.91
72612;BME280;60655;52.182;4.474;2023-08-08T01:39:24;101348.78;;;17.29;68.92
72612;BME280;60655;52.182;4.474;2023-08-08T01:41:26;101342.50;;;17.23;67.63
72612;BME280;60655;52.182;4.474;2023-08-08T01:43:28;101345.31;;;17.33;68.01
72612;BME280;60655;52.182;4.474;2023-08-08T01:45:30;101340.00;;;17.38;68.10
72612;BME280;60655;52.182;4.474;2023-08-08T01:47:31;101333.50;;;17.34;66.62
72612;BME280;60655;52.182;4.474;2023-08-08T01:49:32;101331.84;;;17.28;66.75
72612;BME280;60655;52.182;4.474;2023-08-08T01:51:33;101322.34;;;17.20;66.22
72612;BME280;60655;52.182;4.474;2023-08-08T01:53:34;101330.53;;;17.31;65.92
72612;BME280;60655;52.182;4.474;2023-08-08T01:55:35;101332.16;;;17.32;65.89
72612;BME280;60655;52.182;4.474;2023-08-08T01:57:36;101329.41;;;17.27;66.02
72612;BME280;60655;52.182;4.474;2023-08-08T01:59:37;101325.41;;;17.29;65.51
72612;BME280;60655;52.182;4.474;2023-08-08T02:01:38;101326.41;;;17.23;66.02
72612;BME280;60655;52.182;4.474;2023-08-08T02:03:39;101317.91;;;17.31;66.70
72612;BME280;60655;52.182;4.474;2023-08-08T02:05:40;101315.97;;;17.27;67.20
72612;BME280;60655;52.182;4.474;2023-08-08T02:07:40;101317.91;;;17.31;67.40
72612;BME280;60655;52.182;4.474;2023-08-08T02:09:41;101312.72;;;17.25;67.77
72612;BME280;60655;52.182;4.474;2023-08-08T02:11:42;101314.28;;;17.20;67.88
72612;BME280;60655;52.182;4.474;2023-08-08T02:13:43;101319.09;;;17.18;68.90
72612;BME280;60655;52.182;4.474;2023-08-08T02:15:45;101315.50;;;17.13;68.32
72612;BME280;60655;52.182;4.474;2023-08-08T02:17:46;101310.63;;;17.10;66.43
72612;BME280;60655;52.182;4.474;2023-08-08T02:19:47;101317.22;;;17.19;65.62
72612;BME280;60655;52.182;4.474;2023-08-08T02:21:48;101315.75;;;17.11;65.06
72612;BME280;60655;52.182;4.474;2023-08-08T02:23:49;101316.25;;;17.08;64.56
72612;BME280;60655;52.182;4.474;2023-08-08T02:25:50;101310.16;;;17.13;65.86
72612;BME280;60655;52.182;4.474;2023-08-08T02:27:51;101316.81;;;17.10;65.13
72612;BME280;60655;52.182;4.474;2023-08-08T02:29:52;101320.47;;;17.04;65.43
72612;BME280;60655;52.182;4.474;2023-08-08T02:31:53;101319.94;;;17.02;66.24
72612;BME280;60655;52.182;4.474;2023-08-08T02:33:54;101319.41;;;17.05;66.98
72612;BME280;60655;52.182;4.474;2023-08-08T02:35:55;101315.38;;;17.03;68.21
72612;BME280;60655;52.182;4.474;2023-08-08T02:37:57;101307.34;;;17.03;66.93
72612;BME280;60655;52.182;4.474;2023-08-08T02:39:57;101307.38;;;17.08;68.82
72612;BME280;60655;52.182;4.474;2023-08-08T02:41:58;101303.03;;;17.02;68.07
72612;BME280;60655;52.182;4.474;2023-08-08T02:43:59;101309.28;;;16.91;67.99
72612;BME280;60655;52.182;4.474;2023-08-08T02:46:00;101306.28;;;16.87;68.03
72612;BME280;60655;52.182;4.474;2023-08-08T02:48:01;101301.41;;;16.84;68.15
72612;BME280;60655;52.182;4.474;2023-08-08T02:50:02;101303.03;;;16.85;68.76
72612;BME280;60655;52.182;4.474;2023-08-08T02:52:04;101303.44;;;16.94;70.03
72612;BME280;60655;52.182;4.474;2023-08-08T02:54:05;101297.47;;;16.70;70.18
72612;BME280;60655;52.182;4.474;2023-08-08T02:56:06;101298.72;;;16.84;70.33
72612;BME280;60655;52.182;4.474;2023-08-08T02:58:07;101290.91;;;16.82;70.53
72612;BME280;60655;52.182;4.474;2023-08-08T03:00:08;101290.34;;;16.80;70.86
72612;BME280;60655;52.182;4.474;2023-08-08T03:02:10;101290.34;;;16.80;70.94
72612;BME280;60655;52.182;4.474;2023-08-08T03:04:11;101284.84;;;16.70;72.00
72612;BME280;60655;52.182;4.474;2023-08-08T03:06:12;101291.34;;;16.74;72.90
72612;BME280;60655;52.182;4.474;2023-08-08T03:08:13;101283.72;;;16.66;nan
72612;BME280;60655;52.182;4.474;2023-08-08T03:10:14;101287.78;;;16.69;71.99
72612;BME280;60655;52.182;4.474;2023-08-08T03:12:15;101284.00;;;16.53;72.48
72612;BME280;60655;52.182;4.474;2023-08-08T03:14:16;101288.72;;;16.63;72.84
72612;BME280;60655;52.182;4.474;2023-08-08T03:16:17;101284.41;;;16.62;73.15
72612;BME280;60655;52.182;4.474;2023-08-08T03:18:18;101284.34;;;16.57;72.42
72612;BME280;60655;52.182;4.474;2023-08-08T03:20:19;101280.75;;;16.51;73.00
72612;BME280;60655;52.182;4.474;2023-08-08T03:22:20;101284.97;;;16.47;73.12
72612;BME280;60655;52.182;4.474;2023-08-08T03:24:21;101276.94;;;16.47;73.21
72612;BME280;60655;52.182;4.474;2023-08-08T03:26:22;101287.03;;;16.40;73.54
72612;BME280;60655;52.182;4.474;2023-08-08T03:28:23;101288.47;;;16.47;73.30
72612;BME280;60655;52.182;4.474;2023-08-08T03:30:24;101285.66;;;16.37;72.65
72612;BME280;60655;52.182;4.474;2023-08-08T03:32:25;101285.16;;;16.40;73.55
72612;BME280;60655;52.182;4.474;2023-08-08T03:34:25;101273.44;;;16.30;74.09
72612;BME280;60655;52.182;4.474;2023-08-08T03:36:26;101284.91;;;16.42;75.17
72612;BME280;60655;52.182;4.474;2023-08-08T03:38:27;101265.81;;;16.38;74.48
72612;BME280;60655;52.182;4.474;2023-08-08T03:40:28;101276.94;;;16.30;73.49
72612;BME280;60655;52.182;4.474;2023-08-08T03:42:29;101273.06;;;16.38;73.98
72612;BME280;60655;52.182;4.474;2023-08-08T03:44:30;101263.38;;;16.37;73.84
72612;BME280;60655;52.182;4.474;2023-08-08T03:46:31;101267.03;;;16.31;74.27
72612;BME280;60655;52.182;4.474;2023-08-08T03:48:32;101262.31;;;16.38;73.46
72612;BME280;60655;52.182;4.474;2023-08-08T03:50:33;101262.41;;;16.43;72.98
72612;BME280;60655;52.182;4.474;2023-08-08T03:52:34;101267.19;;;16.41;71.74
72612;BME280;60655;52.182;4.474;2023-08-08T03:54:37;101261.19;;;16.34;71.32
72612;BME280;60655;52.182;4.474;2023-08-08T03:56:38;101255.00;;;16.33;72.49
72612;BME280;60655;52.182;4.474;2023-08-08T03:58:39;101252.47;;;16.27;71.55
72612;BME280;60655;52.182;4.474;2023-08-08T04:00:40;101267.44;;;16.39;70.97
72612;BME280;60655;52.182;4.474;2023-08-08T04:02:46;101262.81;;;16.35;71.63
72612;BME280;60655;52.182;4.474;2023-08-08T04:04:47;101256.78;;;16.28;71.15
72612;BME280;60655;52.182;4.474;2023-08-08T04:06:48;101263.06;;;16.33;72.02
72612;BME280;60655;52.182;4.474;2023-08-08T04:08:49;101260.94;;;16.35;72.31
72612;BME280;60655;52.182;4.474;2023-08-08T04:10:50;101259.78;;;16.31;73.31
72612;BME280;60655;52.182;4.474;2023-08-08T04:12:51;101268.75;;;16.37;73.41
72612;BME280;60655;52.182;4.474;2023-08-08T04:14:52;101269.84;;;16.24;73.58
72612;BME280;60655;52.182;4.474;2023-08-08T04:16:53;101256.31;;;16.14;73.06
72612;BME280;60655;52.182;4.474;2023-08-08T04:18:54;101255.06;;;16.21;73.90
72612;BME280;60655;52.182;4.474;2023-08-08T04:20:55;101264.44;;;16.36;74.56
72612;BME280;60655;52.182;4.474;2023-08-08T04:22:56;101227.75;;;15.91;74.22
72612;BME280;60655;52.182;4.474;2023-08-08T04:24:57;101249.13;;;16.19;74.79
72612;BME280;60655;52.182;4.474;2023-08-08T04:26:58;101262.78;;;16.18;73.34
72612;BME280;60655;52.182;4.474;2023-08-08T04:28:59;101267.03;;;16.31;73.23
72612;BME280;60655;52.182;4.474;2023-08-08T04:31:00;101262.97;;;16.28;73.45
72612;BME280;60655;52.182;4.474;2023-08-08T04:33:01;101252.25;;;16.11;72.33
72612;BME280;60655;52.182;4.474;2023-08-08T04:35:02;101266.47;;;16.29;71.70
72612;BME280;60655;52.182;4.474;2023-08-08T04:37:03;101269.13;;;16.29;72.09
72612;BME280;60655;52.182;4.474;2023-08-08T04:39:04;101268.47;;;16.21;68.62
72612;BME280;60655;52.182;4.474;2023-08-08T04:41:05;101256.22;;;16.26;69.68
72612;BME280;60655;52.182;4.474;2023-08-08T04:43:06;101260.91;;;16.18;69.36
72612;BME280;60655;52.182;4.474;2023-08-08T04:47:46;101274.25;;;16.13;67.95
72612;BME280;60655;52.182;4.474;2023-08-08T04:49:47;101280.91;;;16.28;69.42
72612;BME280;60655;52.182;4.474;2023-08-08T04:51:48;101258.19;;;16.13;69.01
72612;BME280;60655;52.182;4.474;2023-08-08T04:53:49;101244.94;;;16.07;69.30
72612;BME280;60655;52.182;4.474;2023-08-08T04:55:50;101277.75;;;16.31;69.79
72612;BME280;60655;52.182;4.474;2023-08-08T04:57:51;101268.91;;;16.13;69.45
72612;BME280;60655;52.182;4.474;2023-08-08T04:59:52;101289.44;;;16.25;69.38
72612;BME280;60655;52.182;4.474;2023-08-08T05:01:53;101283.25;;;16.24;71.12
72612;BME280;60655;52.182;4.474;2023-08-08T05:03:54;101240.91;;;15.93;70.63
72612;BME280;60655;52.182;4.474;2023-08-08T05:05:55;101282.38;;;16.18;69.37
72612;BME280;60655;52.182;4.474;2023-08-08T05:07:56;101276.03;;;16.08;69.25
72612;BME280;60655;52.182;4.474;2023-08-08T05:09:56;101281.00;;;16.16;68.86
72612;BME280;60655;52.182;4.474;2023-08-08T05:11:57;101279.44;;;16.20;68.95
72612;BME280;60655;52.182;4.474;2023-08-08T05:13:58;101275.13;;;16.19;69.21
72612;BME280;60655;52.182;4.474;2023-08-08T05:15:59;101283.75;;;16.21;69.10
72612;BME280;60655;52.182;4.474;2023-08-08T05:18:00;101258.75;;;16.15;69.80
72612;BME280;60655;52.182;4.474;2023-08-08T05:20:02;101280.59;;;16.24;69.46
72612;BME280;60655;52.182;4.474;2023-08-08T05:22:04;101275.66;;;16.16;69.59
72612;BME280;60655;52.182;4.474;2023-08-08T05:24:05;101278.72;;;16.25;69.67
72612;BME280;60655;52.182;4.474;2023-08-08T05:26:06;101280.50;;;16.19;70.82
72612;BME280;60655;52.182;4.474;2023-08-08T05:28:07;101289.03;;;16.16;71.10
72612;BME280;60655;52.182;4.474;2023-08-08T05:30:08;101288.22;;;16.32;70.28
72612;BME280;60655;52.182;4.474;2023-08-08T05:32:09;101286.47;;;16.38;70.92
72612;BME280;60655;52.182;4.474;2023-08-08T05:34:10;101272.25;;;16.37;72.01
72612;BME280;60655;52.182;4.474;2023-08-08T05:36:11;101267.75;;;16.26;71.18
72612;BME280;60655;52.182;4.474;2023-08-08T05:38:12;101263.88;;;16.34;73.00
72612;BME280;60655;52.182;4.474;2023-08-08T05:40:13;101281.66;;;16.57;72.64
72612;BME280;60655;52.182;4.474;2023-08-08T05:42:14;101267.78;;;16.43;71.73
72612;BME280;60655;52.182;4.474;2023-08-08T05:44:15;101234.78;;;16.26;72.13
72612;BME280;60655;52.182;4.474;2023-08-08T05:46:16;101254.00;;;16.56;71.83
72612;BME280;60655;52.182;4.474;2023-08-08T05:48:17;101249.91;;;16.65;71.33
72612;BME280;60655;52.182;4.474;2023-08-08T05:50:18;101286.59;;;16.98;71.66
72612;BME280;60655;52.182;4.474;2023-08-08T05:52:20;101290.13;;;17.04;70.97
72612;BME280;60655;52.182;4.474;2023-08-08T05:54:22;101283.72;;;17.05;69.99
72612;BME280;60655;52.182;4.474;2023-08-08T05:56:23;101283.34;;;16.96;69.07
72612;BME280;60655;52.182;4.474;2023-08-08T05:58:24;101289.22;;;16.93;69.18
72612;BME280;60655;52.182;4.474;2023-08-08T06:00:25;101291.41;;;16.96;68.17
72612;BME280;60655;52.182;4.474;2023-08-08T06:02:26;101292.63;;;16.88;69.16
72612;BME280;60655;52.182;4.474;2023-08-08T06:04:27;101287.75;;;16.85;69.03
72612;BME280;60655;52.182;4.474;2023-08-08T06:06:28;101288.63;;;16.91;69.44
72612;BME280;60655;52.182;4.474;2023-08-08T06:08:29;101285.66;;;17.09;68.50
72612;BME280;60655;52.182;4.474;2023-08-08T06:10:30;101292.66;;;17.10;67.95
72612;BME280;60655;52.182;4.474;2023-08-08T06:12:31;101293.84;;;17.19;67.59
72612;BME280;60655;52.182;4.474;2023-08-08T06:14:32;101290.19;;;17.26;67.78
72612;BME280;60655;52.182;4.474;2023-08-08T06:16:33;101294.75;;;17.25;67.60
72612;BME280;60655;52.182;4.474;2023-08-08T06:18:34;101289.94;;;17.27;68.12
72612;BME280;60655;52.182;4.474;2023-08-08T06:20:35;101288.91;;;17.33;67.49
72612;BME280;60655;52.182;4.474;2023-08-08T06:22:37;101302.91;;;17.35;67.45
72612;BME280;60655;52.182;4.474;2023-08-08T06:24:38;101298.56;;;17.29;66.84
72612;BME280;60655;52.182;4.474;2023-08-08T06:26:39;101300.22;;;17.35;67.30
72612;BME280;60655;52.182;4.474;2023-08-08T06:28:40;101300.28;;;17.18;68.31
72612;BME280;60655;52.182;4.474;2023-08-08T06:30:41;101296.78;;;17.18;68.88
72612;BME280;60655;52.182;4.474;2023-08-08T06:32:42;101291.59;;;17.33;69.44
72612;BME280;60655;52.182;4.474;2023-08-08T06:34:43;101301.91;;;17.19;68.76
72612;BME280;60655;52.182;4.474;2023-08-08T06:36:44;101293.53;;;17.38;68.13
72612;BME280;60655;52.182;4.474;2023-08-08T06:38:47;101293.94;;;17.46;68.03
72612;BME280;60655;52.182;4.474;2023-08-08T06:40:48;101303.94;;;17.29;68.40
72612;BME280;60655;52.182;4.474;2023-08-08T06:42:51;101290.53;;;17.34;68.21
72612;BME280;60655;52.182;4.474;2023-08-08T06:44:52;101290.84;;;17.38;68.03
72612;BME280;60655;52.182;4.474;2023-08-08T06:46:53;101288.41;;;17.36;67.36
72612;BME280;60655;52.182;4.474;2023-08-08T06:48:55;101297.53;;;17.35;68.14
72612;BME280;60655;52.182;4.474;2023-08-08T06:51:17;101290.25;;;17.31;66.57
72612;BME280;60655;52.182;4.474;2023-08-08T06:53:20;101218.13;;;16.96;66.80
72612;BME280;60655;52.182;4.474;2023-08-08T06:55:21;101287.88;;;17.56;66.27
72612;BME280;60655;52.182;4.474;2023-08-08T06:57:22;101290.34;;;17.63;66.39
72612;BME280;60655;52.182;4.474;2023-08-08T06:59:23;101292.94;;;17.74;66.77
72612;BME280;60655;52.182;4.474;2023-08-08T07:01:24;101291.38;;;17.78;65.90
72612;BME280;60655;52.182;4.474;2023-08-08T07:03:26;101290.09;;;17.64;64.48
72612;BME280;60655;52.182;4.474;2023-08-08T07:05:27;101267.22;;;17.62;63.55
72612;BME280;60655;52.182;4.474;2023-08-08T07:07:28;101296.06;;;17.93;63.54
72612;BME280;60655;52.182;4.474;2023-08-08T07:09:30;101304.31;;;17.81;62.87
72612;BME280;60655;52.182;4.474;2023-08-08T07:11:31;101292.19;;;17.79;63.46
72612;BME280;60655;52.182;4.474;2023-08-08T07:13:32;101298.13;;;17.81;64.07
72612;BME280;60655;52.182;4.474;2023-08-08T07:15:33;101305.63;;;17.79;64.35
72612;BME280;60655;52.182;4.474;2023-08-08T07:17:35;101283.06;;;17.80;63.26
72612;BME280;60655;52.182;4.474;2023-08-08T07:19:36;101286.09;;;17.88;62.61
72612;BME280;60655;52.182;4.474;2023-08-08T07:21:37;101291.97;;;18.12;64.11
72612;BME280;60655;52.182;4.474;2023-08-08T07:23:38;101297.94;;;18.19;63.27
72612;BME280;60655;52.182;4.474;2023-08-08T07:25:39;101279.34;;;18.13;63.29
72612;BME280;60655;52.182;4.474;2023-08-08T07:27:40;101281.44;;;18.06;63.79
72612;BME280;60655;52.182;4.474;2023-08-08T07:29:41;101298.06;;;18.03;62.93
72612;BME280;60655;52.182;4.474;2023-08-08T07:31:43;101275.88;;;17.85;62.64
72612;BME280;60655;52.182;4.474;2023-08-08T07:33:44;101278.56;;;17.91;62.70
72612;BME280;60655;52.182;4.474;2023-08-08T07:35:45;101223.75;;;17.65;62.45
72612;BME280;60655;52.182;4.474;2023-08-08T07:37:46;101258.63;;;17.81;64.06
72612;BME280;60655;52.182;4.474;2023-08-08T07:39:50;101287.69;;;17.84;63.30
72612;BME280;60655;52.182;4.474;2023-08-08T07:41:58;101254.25;;;17.53;63.80
72612;BME280;60655;52.182;4.474;2023-08-08T07:43:59;101281.44;;;17.79;62.41
72612;BME280;60655;52.182;4.474;2023-08-08T07:46:00;101279.91;;;17.88;62.58
72612;BME280;60655;52.182;4.474;2023-08-08T07:48:01;101250.34;;;17.88;63.35
72612;BME280;60655;52.182;4.474;2023-08-08T07:50:02;101259.78;;;18.22;63.94
72612;BME280;60655;52.182;4.474;2023-08-08T07:52:04;101277.59;;;18.29;63.98
72612;BME280;60655;52.182;4.474;2023-08-08T07:54:12;101283.47;;;18.26;64.08
72612;BME280;60655;52.182;4.474;2023-08-08T07:56:13;101264.28;;;18.12;64.96
72612;BME280;60655;52.182;4.474;2023-08-08T07:58:14;101282.72;;;18.30;63.97
72612;BME280;60655;52.182;4.474;2023-08-08T08:00:15;101291.03;;;18.29;63.34
72612;BME280;60655;52.182;4.474;2023-08-08T08:02:19;101288.31;;;18.23;63.09
72612;BME280;60655;52.182;4.474;2023-08-08T08:04:20;101298.03;;;18.30;63.87
72612;BME280;60655;52.182;4.474;2023-08-08T08:06:21;101300.56;;;18.09;64.74
72612;BME280;60655;52.182;4.474;2023-08-08T08:08:22;101292.44;;;18.04;66.07
72612;BME280;60655;52.182;4.474;2023-08-08T08:10:22;101296.13;;;18.25;63.99
72612;BME280;60655;52.182;4.474;2023-08-08T08:12:23;101299.09;;;18.29;62.95
72612;BME280;60655;52.182;4.474;2023-08-08T08:14:24;101296.31;;;18.45;62.80
72612;BME280;60655;52.182;4.474;2023-08-08T08:16:25;101291.69;;;18.41;64.21
72612;BME280;60655;52.182;4.474;2023-08-08T08:18:26;101298.09;;;18.35;63.19
72612;BME280;60655;52.182;4.474;2023-08-08T08:20:28;101292.00;;;18.44;62.77
72612;BME280;60655;52.182;4.474;2023-08-08T08:22:29;101290.38;;;18.48;62.92
72612;BME280;60655;52.182;4.474;2023-08-08T08:24:29;101292.06;;;18.22;62.96
72612;BME280;60655;52.182;4.474;2023-08-08T08:26:31;101295.19;;;18.09;63.32
72612;BME280;60655;52.182;4.474;2023-08-08T08:28:32;101302.41;;;18.36;64.28
72612;BME280;60655;52.182;4.474;2023-08-08T08:30:33;101280.38;;;18.07;64.73
72612;BME280;60655;52.182;4.474;2023-08-08T08:32:34;101302.22;;;18.15;65.20
72612;BME280;60655;52.182;4.474;2023-08-08T08:34:35;101297.31;;;18.07;65.19
72612;BME280;60655;52.182;4.474;2023-08-08T08:36:37;101294.13;;;18.42;65.52
72612;BME280;60655;52.182;4.474;2023-08-08T08:38:38;101298.38;;;18.38;65.15
72612;BME280;60655;52.182;4.474;2023-08-08T08:40:40;101290.41;;;18.16;63.68
72612;BME280;60655;52.182;4.474;2023-08-08T08:42:41;101296.94;;;18.26;62.47
72612;BME280;60655;52.182;4.474;2023-08-08T08:44:43;101304.38;;;18.45;62.74
72612;BME280;60655;52.182;4.474;2023-08-08T08:46:47;101300.06;;;18.49;62.84
72612;BME280;60655;52.182;4.474;2023-08-08T08:48:49;101306.75;;;18.42;61.36
72612;BME280;60655;52.182;4.474;2023-08-08T08:50:51;101306.50;;;18.43;62.45
72612;BME280;60655;52.182;4.474;2023-08-08T08:52:53;101304.69;;;18.54;62.64
72612;BME280;60655;52.182;4.474;2023-08-08T08:54:57;101306.38;;;18.60;62.14
72612;BME280;60655;52.182;4.474;2023-08-08T08:56:58;101297.63;;;18.80;63.57
72612;BME280;60655;52.182;4.474;2023-08-08T08:59:00;101297.34;;;18.71;61.87
72612;BME280;60655;52.182;4.474;2023-08-08T09:01:01;101304.91;;;18.74;62.17
72612;BME280;60655;52.182;4.474;2023-08-08T09:03:03;101308.75;;;18.88;62.02
72612;BME280;60655;52.182;4.474;2023-08-08T09:05:05;101304.09;;;18.74;62.47
72612;BME280;60655;52.182;4.474;2023-08-08T09:07:06;101303.31;;;18.46;60.29
72612;BME280;60655;52.182;4.474;2023-08-08T09:09:07;101247.13;;;17.91;61.46
72612;BME280;60655;52.182;4.474;2023-08-08T09:11:08;101310.59;;;18.51;61.08
72612;BME280;60655;52.182;4.474;2023-08-08T09:13:09;101301.59;;;18.35;61.31
72612;BME280;60655;52.182;4.474;2023-08-08T09:15:11;101310.06;;;18.54;60.91
72612;BME280;60655;52.182;4.474;2023-08-08T09:17:13;101316.69;;;18.68;60.70
72612;BME280;60655;52.182;4.474;2023-08-08T09:19:15;101314.00;;;18.68;61.07
72612;BME280;60655;52.182;4.474;2023-08-08T09:21:18;101311.91;;;18.75;60.98
72612;BME280;60655;52.182;4.474;2023-08-08T09:23:20;101307.00;;;18.67;61.44
72612;BME280;60655;52.182;4.474;2023-08-08T09:25:21;101309.84;;;18.93;60.73
72612;BME280;60655;52.182;4.474;2023-08-08T09:27:22;101313.44;;;18.66;61.05
72612;BME280;60655;52.182;4.474;2023-08-08T09:29:23;101306.63;;;18.96;61.93
72612;BME280;60655;52.182;4.474;2023-08-08T09:31:25;101310.03;;;18.81;59.52
72612;BME280;60655;52.182;4.474;2023-08-08T09:33:29;101309.50;;;18.84;60.39
72612;BME280;60655;52.182;4.474;2023-08-08T09:35:30;101310.63;;;18.88;59.64
72612;BME280;60655;52.182;4.474;2023-08-08T09:37:31;101314.69;;;18.91;58.94
72612;BME280;60655;52.182;4.474;2023-08-08T09:39:32;101318.53;;;18.63;60.99
72612;BME280;60655;52.182;4.474;2023-08-08T09:41:33;101333.44;;;18.80;61.66
72612;BME280;60655;52.182;4.474;2023-08-08T09:43:34;101318.03;;;19.13;60.75
72612;BME280;60655;52.182;4.474;2023-08-08T09:45:39;101312.34;;;19.04;59.88
72612;BME280;60655;52.182;4.474;2023-08-08T09:47:42;101310.47;;;19.05;60.78
72612;BME280;60655;52.182;4.474;2023-08-08T09:49:44;101300.69;;;18.94;60.13
72612;BME280;60655;52.182;4.474;2023-08-08T09:51:46;101317.50;;;19.16;60.88
72612;BME280;60655;52.182;4.474;2023-08-08T09:53:48;101314.97;;;18.94;61.67
72612;BME280;60655;52.182;4.474;2023-08-08T09:55:49;101327.25;;;19.22;60.27
72612;BME280;60655;52.182;4.474;2023-08-08T09:57:51;101314.91;;;19.31;60.33
72612;BME280;60655;52.182;4.474;2023-08-08T09:59:53;101313.28;;;19.35;60.72
72612;BME280;60655;52.182;4.474;2023-08-08T10:01:54;101321.72;;;19.49;60.52
72612;BME280;60655;52.182;4.474;2023-08-08T10:03:56;101312.56;;;19.50;60.11
72612;BME280;60655;52.182;4.474;2023-08-08T10:05:58;101318.16;;;19.33;60.40
72612;BME280;60655;52.182;4.474;2023-08-08T10:07:59;101311.50;;;18.99;62.33
72612;BME280;60655;52.182;4.474;2023-08-08T10:10:01;101326.38;;;19.11;62.20
72612;BME280;60655;52.182;4.474;2023-08-08T10:12:02;101317.16;;;18.97;63.08
72612;BME280;60655;52.182;4.474;2023-08-08T10:14:03;101319.50;;;18.88;61.42
72612;BME280;60655;52.182;4.474;2023-08-08T10:16:08;101315.50;;;18.91;62.22
72612;BME280;60655;52.182;4.474;2023-08-08T10:18:09;101319.63;;;18.67;60.71
72612;BME280;60655;52.182;4.474;2023-08-08T10:20:18;101307.53;;;18.69;61.57
72612;BME280;60655;52.182;4.474;2023-08-08T10:22:22;101309.03;;;18.92;60.23
72612;BME280;60655;52.182;4.474;2023-08-08T10:24:35;101308.75;;;18.88;58.34
72612;BME280;60655;52.182;4.474;2023-08-08T10:26:57;101316.31;;;18.92;60.62
72612;BME280;60655;52.182;4.474;2023-08-08T10:29:01;101311.28;;;19.10;61.13
72612;BME280;60655;52.182;4.474;2023-08-08T10:31:02;101307.22;;;19.03;57.98
72612;BME280;60655;52.182;4.474;2023-08-08T10:33:05;101313.16;;;19.05;59.14
72612;BME280;60655;52.182;4.474;2023-08-08T10:35:07;101307.56;;;19.16;59.34
72612;BME280;60655;52.182;4.474;2023-08-08T10:37:13;101299.53;;;19.27;60.22
72612;BME280;60655;52.182;4.474;2023-08-08T10:39:17;101305.19;;;19.25;60.16
72612;BME280;60655;52.182;4.474;2023-08-08T10:41:22;101302.91;;;19.07;59.73